»·PEaware :: N433YE KSNA-KCRQ

N433YE :: KSNA-KCRQ

FLIGHT INFORMATION

Flight Status: Arrived
Operator: Privately registered:
United States
More flights under this callsign
Pilot: Jeremy H. (10741)
Aircraft: Diamond DA-62
(DA62)
More flights by this aircraft type
Origin: KSNA John Wayne-Orange Co
United States
Destination: KCRQ McClellan-Palomar
United States
More flights between these airports :: More routes between these airports
Route: V23 OCN
File this flight plan on PilotEdge
Remarks: I-2
Altitude:
(Current/Filed)
5,000ft
Speed:
(Current/Filed)
181kts
Departed: 08-Aug-18 03:09 PM
Arrived: 08-Aug-18 03:42 PM
Distance/Time
Traveled:
44nm/0:33
Distance/Time
To Go:
Arrived

Flight Plot

Page will automatically refresh every two minutes.


Map Options




Map Legend


Flown Route
Filed Route
Departure Airport
Arrival Airport
Navaid (VOR, NDB)
Fix

Horizontal Profiles

Position Reports

Time Latitude Longitude Heading Altitude Ground
Speed
08-Aug-18 14:58 33.674971 -117.871456 217 60ft 0kts
08-Aug-18 14:59 33.674971 -117.871456 217 60ft 0kts
08-Aug-18 15:00 33.674971 -117.871456 217 60ft 0kts
08-Aug-18 15:01 33.674971 -117.871456 217 60ft 0kts
08-Aug-18 15:02 33.674971 -117.871456 217 60ft 0kts
08-Aug-18 15:03 33.674971 -117.871456 217 60ft 0kts
08-Aug-18 15:04 33.674971 -117.871456 217 60ft 0kts
08-Aug-18 15:05 33.674971 -117.871456 217 60ft 0kts
08-Aug-18 15:06 33.677125 -117.869413 28 60ft 17kts
08-Aug-18 15:07 33.680816 -117.867274 29 60ft 12kts
08-Aug-18 15:08 33.681238 -117.866474 118 60ft 0kts
08-Aug-18 15:09 33.681238 -117.866473 119 60ft 0kts
08-Aug-18 15:10 33.671406 -117.869802 188 281ft 91kts
08-Aug-18 15:11 33.648531 -117.871224 185 1873ft 81kts
08-Aug-18 15:12 33.625921 -117.872664 185 3348ft 84kts
08-Aug-18 15:13 33.602497 -117.874676 185 4808ft 87kts
08-Aug-18 15:14 33.567134 -117.878581 186 4998ft 159kts
08-Aug-18 15:15 33.520910 -117.883942 186 4990ft 171kts
08-Aug-18 15:16 33.473414 -117.889460 186 4990ft 172kts
08-Aug-18 15:17 33.425850 -117.894957 186 4992ft 172kts
08-Aug-18 15:18 33.382374 -117.885218 111 4996ft 181kts
08-Aug-18 15:19 33.389025 -117.824509 81 4997ft 186kts
08-Aug-18 15:20 33.398342 -117.763481 81 4990ft 186kts
08-Aug-18 15:21 33.407380 -117.702330 80 4993ft 186kts
08-Aug-18 15:22 33.403618 -117.641928 106 4997ft 184kts
08-Aug-18 15:23 33.389017 -117.594379 126 4999ft 183kts
08-Aug-18 15:24 33.348209 -117.543058 137 4998ft 182kts
08-Aug-18 15:25 33.312043 -117.500869 137 4996ft 181kts
08-Aug-18 15:26 33.281933 -117.465776 137 4995ft 181kts
08-Aug-18 15:27 33.268845 -117.399775 91 4310ft 185kts
08-Aug-18 15:28 33.269534 -117.340766 91 3985ft 165kts
08-Aug-18 15:29 33.270291 -117.296882 91 3989ft 155kts
08-Aug-18 15:30 33.270936 -117.244756 92 3994ft 158kts
08-Aug-18 15:31 33.271304 -117.192333 91 3996ft 156kts
08-Aug-18 15:32 33.271438 -117.140927 91 3996ft 152kts
08-Aug-18 15:33 33.271295 -117.082847 95 4002ft 149kts
08-Aug-18 15:34 33.245308 -117.070157 191 4009ft 138kts
08-Aug-18 15:35 33.210697 -117.077352 192 4006ft 117kts
08-Aug-18 15:36 33.181943 -117.094749 227 3693ft 122kts
08-Aug-18 15:37 33.159409 -117.118970 223 3299ft 114kts
08-Aug-18 15:38 33.148985 -117.151968 256 2613ft 94kts
08-Aug-18 15:39 33.143934 -117.183007 258 1954ft 98kts
08-Aug-18 15:40 33.138793 -117.215090 257 1361ft 98kts
08-Aug-18 15:41 33.133584 -117.247098 259 798ft 99kts
08-Aug-18 15:42 33.128609 -117.277782 259 309ft 64kts
08-Aug-18 15:43 33.127097 -117.282469 110 312ft 9kts
08-Aug-18 15:44 33.126686 -117.282185 173 312ft 0kts
08-Aug-18 15:45 33.126686 -117.282185 173 312ft 0kts
08-Aug-18 15:46 33.126686 -117.282185 173 312ft 0kts
08-Aug-18 15:47 33.126686 -117.282185 173 312ft 0kts
08-Aug-18 15:48 33.126686 -117.282185 173 312ft 0kts
08-Aug-18 15:49 33.126686 -117.282185 173 312ft 0kts
08-Aug-18 15:50 33.126686 -117.282185 173 312ft 0kts
08-Aug-18 15:51 33.126686 -117.282185 173 312ft 0kts
08-Aug-18 15:52 33.126686 -117.282185 173 312ft 0kts
08-Aug-18 15:53 33.126686 -117.282185 173 312ft 0kts
08-Aug-18 15:54 33.126686 -117.282185 173 312ft 0kts
08-Aug-18 15:55 33.126686 -117.282185 173 312ft 0kts
08-Aug-18 15:56 33.126686 -117.282185 173 312ft 0kts
08-Aug-18 15:57 33.126686 -117.282185 173 312ft 0kts

Navigation Log

Ident Type
Flight plan parsing failed, navigation log unavailable